createdAt,value
2018-12-02T00:00:54.861Z,100673.23
2018-12-02T00:03:24.173Z,100664.79
2018-12-02T00:05:53.394Z,100656.23
2018-12-02T00:08:22.622Z,100652.23
2018-12-02T00:10:51.853Z,100648.23
2018-12-02T00:13:21.008Z,100640.13
2018-12-02T00:15:50.158Z,100641.20
2018-12-02T00:18:19.186Z,100639.02
2018-12-02T00:20:48.394Z,100636.21
2018-12-02T00:23:17.398Z,100637.36
2018-12-02T00:25:46.531Z,100638.12
2018-12-02T00:28:15.806Z,100636.06
2018-12-02T00:30:44.861Z,100626.75
2018-12-02T00:33:13.942Z,100629.85
2018-12-02T00:35:43.275Z,100623.00
2018-12-02T00:38:12.290Z,100618.45
2018-12-02T00:40:41.346Z,100620.20
2018-12-02T00:43:10.882Z,100614.20
2018-12-02T00:45:39.861Z,100626.67
2018-12-02T00:48:10.022Z,100620.25
2018-12-02T00:50:39.369Z,100619.92
2018-12-02T00:53:14.878Z,100617.30
2018-12-02T00:55:44.676Z,100621.34
2018-12-02T00:58:13.693Z,100617.06
2018-12-02T01:00:42.679Z,100603.76
2018-12-02T01:03:13.020Z,100606.66
2018-12-02T01:05:42.061Z,100609.37
2018-12-02T01:08:11.465Z,100605.14
2018-12-02T01:10:47.378Z,100603.41
2018-12-02T01:13:16.474Z,100606.75
2018-12-02T01:15:45.537Z,100607.78
2018-12-02T01:18:14.567Z,100600.89
2018-12-02T01:20:43.602Z,100594.43
2018-12-02T01:23:13.173Z,100595.38
2018-12-02T01:25:42.539Z,100593.67
2018-12-02T01:28:11.562Z,100596.53
2018-12-02T01:30:40.552Z,100593.58
2018-12-02T01:33:16.299Z,100587.97
2018-12-02T01:35:45.421Z,100585.06
2018-12-02T01:38:14.703Z,100574.38
2018-12-02T01:40:47.808Z,100573.09
2018-12-02T01:43:16.846Z,100571.66
2018-12-02T01:45:45.870Z,100571.03
2018-12-02T01:48:14.906Z,100566.72
2018-12-02T01:50:43.938Z,100564.62
2018-12-02T01:53:13.305Z,100559.86
2018-12-02T01:55:42.503Z,100558.19
2018-12-02T01:58:11.914Z,100548.39
2018-12-02T02:00:40.946Z,100540.19
2018-12-02T02:03:10.052Z,100533.76
2018-12-02T02:05:39.445Z,100525.25
2018-12-02T02:08:08.532Z,100522.20
2018-12-02T02:10:37.672Z,100521.82
2018-12-02T02:13:06.822Z,100518.39
2018-12-02T02:15:39.096Z,100515.44
2018-12-02T02:18:08.198Z,100511.59
2018-12-02T02:20:37.267Z,100508.56
2018-12-02T02:23:06.687Z,100510.30
2018-12-02T02:25:35.837Z,100509.76
2018-12-02T02:28:04.911Z,100505.99
2018-12-02T02:30:34.057Z,100504.36
2018-12-02T02:33:03.798Z,100502.45
2018-12-02T02:35:33.100Z,100496.27
2018-12-02T02:38:02.653Z,100477.91
2018-12-02T02:40:32.514Z,100469.53
2018-12-02T02:43:02.922Z,100459.11
2018-12-02T02:45:32.007Z,100448.77
2018-12-02T02:48:01.084Z,100446.27
2018-12-02T02:50:30.325Z,100439.09
2018-12-02T02:53:00.710Z,100443.20
2018-12-02T02:55:29.744Z,100438.10
2018-12-02T02:57:58.769Z,100436.42
2018-12-02T03:00:28.568Z,100438.64
2018-12-02T03:02:57.622Z,100427.26
2018-12-02T03:05:26.613Z,100429.79
2018-12-02T03:07:55.582Z,100429.04
2018-12-02T03:10:24.779Z,100421.73
2018-12-02T03:12:54.524Z,100423.05
2018-12-02T03:15:24.097Z,100421.27
2018-12-02T03:17:53.122Z,100419.13
2018-12-02T03:20:23.628Z,100416.95
2018-12-02T03:22:53.950Z,100432.59
2018-12-02T03:25:26.896Z,100428.55
2018-12-02T03:28:02.344Z,100423.59
2018-12-02T03:30:31.336Z,100410.53
2018-12-02T03:33:00.592Z,100408.47
2018-12-02T03:35:29.657Z,100404.36
2018-12-02T03:37:58.951Z,100404.16
2018-12-02T03:40:29.081Z,100400.67
2018-12-02T03:42:59.217Z,100393.95
2018-12-02T03:45:28.996Z,100384.68
2018-12-02T03:47:59.161Z,100381.44
2018-12-02T03:50:28.274Z,100377.62
2018-12-02T03:52:57.399Z,100370.34
2018-12-02T03:55:26.419Z,100367.81
2018-12-02T03:57:55.435Z,100369.53
2018-12-02T04:00:25.816Z,100366.60
2018-12-02T04:02:56.119Z,100360.97
2018-12-02T04:05:26.545Z,100354.55
2018-12-02T04:07:55.715Z,100348.59
2018-12-02T04:10:24.930Z,100350.34
2018-12-02T04:12:54.110Z,100350.83
2018-12-02T04:15:24.653Z,100340.06
2018-12-02T04:17:53.877Z,100335.30
2018-12-02T04:20:22.910Z,100336.84
2018-12-02T04:22:52.986Z,100330.66
2018-12-02T04:25:24.741Z,100325.58
2018-12-02T04:27:53.789Z,100330.45
2018-12-02T04:30:23.666Z,100312.80
2018-12-02T04:32:53.724Z,100307.48
2018-12-02T04:35:25.023Z,100299.35
2018-12-02T04:37:54.050Z,100292.29
2018-12-02T04:40:23.173Z,100273.40
2018-12-02T04:42:52.288Z,100274.63
2018-12-02T04:45:21.385Z,100272.45
2018-12-02T04:47:50.945Z,100267.37
2018-12-02T04:50:24.554Z,100256.98
2018-12-02T04:52:53.885Z,100259.12
2018-12-02T04:55:22.911Z,100247.95
2018-12-02T04:57:52.078Z,100248.22
2018-12-02T05:00:21.579Z,100239.75
2018-12-02T05:02:52.910Z,100239.23
2018-12-02T05:05:24.254Z,100240.52
2018-12-02T05:07:53.903Z,100242.05
2018-12-02T05:10:23.156Z,100240.27
2018-12-02T05:12:52.348Z,100230.46
2018-12-02T05:15:22.119Z,100233.89
2018-12-02T05:17:51.096Z,100237.73
2018-12-02T05:20:21.400Z,100238.20
2018-12-02T05:22:50.554Z,100239.28
2018-12-02T05:25:20.205Z,100237.20
2018-12-02T05:27:49.089Z,100238.62
2018-12-02T05:30:21.121Z,100234.28
2018-12-02T05:32:53.482Z,100235.78
2018-12-02T05:35:22.533Z,100230.63
2018-12-02T05:37:51.660Z,100232.39
2018-12-02T05:40:23.997Z,100223.41
2018-12-02T05:42:54.156Z,100225.18
2018-12-02T05:45:23.467Z,100215.86
2018-12-02T05:47:52.601Z,100204.62
2018-12-02T05:50:25.646Z,100198.27
2018-12-02T05:52:58.234Z,100197.80
2018-12-02T05:55:30.918Z,100191.89
2018-12-02T05:57:59.896Z,100191.81
2018-12-02T06:00:28.879Z,100187.59
2018-12-02T06:02:57.948Z,100184.40
2018-12-02T06:05:26.981Z,100186.68
2018-12-02T06:07:56.123Z,100173.80
2018-12-02T06:10:25.141Z,100172.85
2018-12-02T06:12:54.195Z,100171.08
2018-12-02T06:15:23.542Z,100175.80
2018-12-02T06:17:52.527Z,100173.54
2018-12-02T06:20:24.236Z,100168.91
2018-12-02T06:22:55.527Z,100183.94
2018-12-02T06:25:24.512Z,100176.41
2018-12-02T06:27:53.667Z,100181.61
2018-12-02T06:30:26.841Z,100182.48
2018-12-02T06:32:59.992Z,100186.02
2018-12-02T06:35:29.043Z,100192.56
2018-12-02T06:37:59.544Z,100190.45
2018-12-02T06:40:29.743Z,100175.91
2018-12-02T06:42:58.764Z,100168.20
2018-12-02T06:45:27.768Z,100171.25
2018-12-02T06:47:56.759Z,100163.98
2018-12-02T06:50:27.447Z,100169.05
2018-12-02T06:52:57.759Z,100166.09
2018-12-02T06:55:32.076Z,100167.78
2018-12-02T06:58:09.576Z,100173.86
2018-12-02T07:02:52.987Z,100167.86
2018-12-02T07:05:25.295Z,100149.44
2018-12-02T07:07:54.509Z,100155.46
2018-12-02T07:10:23.518Z,100148.18
2018-12-02T07:12:52.563Z,100141.41
2018-12-02T07:15:21.672Z,100123.88
2018-12-02T07:17:50.693Z,100119.53
2018-12-02T07:20:19.736Z,100123.88
2018-12-02T07:22:49.072Z,100127.23
2018-12-02T07:25:18.256Z,100117.00
2018-12-02T07:27:47.244Z,100111.98
2018-12-02T07:30:16.244Z,100101.98
2018-12-02T07:32:45.232Z,100102.45
2018-12-02T07:35:15.124Z,100086.14
2018-12-02T07:37:49.416Z,100090.91
2018-12-02T07:40:37.203Z,100088.77
2018-12-02T07:43:10.351Z,100087.92
2018-12-02T07:45:39.402Z,100087.13
2018-12-02T07:48:08.874Z,100064.73
2018-12-02T07:50:37.962Z,100059.20
2018-12-02T07:53:07.196Z,100059.66
2018-12-02T07:55:36.252Z,100067.43
2018-12-02T07:58:06.399Z,100063.14
2018-12-02T08:00:35.429Z,100058.63
2018-12-02T08:03:04.518Z,100064.42
2018-12-02T08:05:33.816Z,100060.52
2018-12-02T08:08:02.884Z,100049.81
2018-12-02T08:10:31.926Z,100053.77
2018-12-02T08:13:01.034Z,100046.87
2018-12-02T08:15:30.378Z,100034.89
2018-12-02T08:17:59.915Z,100035.65
2018-12-02T08:20:28.966Z,100038.77
2018-12-02T08:22:57.955Z,100030.55
2018-12-02T08:25:27.029Z,100024.48
2018-12-02T08:27:56.093Z,100023.32
2018-12-02T08:30:26.519Z,100022.94
2018-12-02T08:32:56.256Z,100030.70
2018-12-02T08:35:27.549Z,100013.13
2018-12-02T08:37:58.861Z,100014.42
2018-12-02T08:40:27.955Z,100016.59
2018-12-02T08:42:56.999Z,100006.71
2018-12-02T08:45:26.021Z,100011.01
2018-12-02T08:47:55.106Z,100011.04
2018-12-02T08:50:24.175Z,100007.84
2018-12-02T08:52:53.611Z,100011.80
2018-12-02T08:55:23.221Z,99997.28
2018-12-02T08:57:53.792Z,99999.05
2018-12-02T09:00:23.561Z,100006.70
2018-12-02T09:02:58.775Z,99992.97
2018-12-02T09:05:28.032Z,99985.78
2018-12-02T09:07:59.450Z,99982.75
2018-12-02T09:10:29.752Z,99979.79
2018-12-02T09:13:00.685Z,99984.98
2018-12-02T09:15:29.692Z,99969.50
2018-12-02T09:17:58.876Z,99972.50
2018-12-02T09:20:29.679Z,99961.83
2018-12-02T09:22:58.685Z,99963.05
2018-12-02T09:25:28.297Z,99965.28
2018-12-02T09:27:57.381Z,99954.05
2018-12-02T09:30:28.949Z,99952.80
2018-12-02T09:32:58.480Z,99948.50
2018-12-02T09:35:29.038Z,99944.70
2018-12-02T09:37:58.100Z,99941.69
2018-12-02T09:40:27.115Z,99941.64
2018-12-02T09:42:56.642Z,99939.56
2018-12-02T09:45:28.844Z,99932.25
2018-12-02T09:47:59.716Z,99931.41
2018-12-02T09:50:28.816Z,99922.41
2018-12-02T09:52:59.115Z,99922.39
2018-12-02T09:55:40.088Z,99911.64
2018-12-02T09:58:24.020Z,99911.23
2018-12-02T10:00:53.717Z,99906.09
2018-12-02T10:03:22.951Z,99909.53
2018-12-02T10:05:52.339Z,99893.64
2018-12-02T10:08:21.402Z,99897.08
2018-12-02T10:10:50.970Z,99887.67
2018-12-02T10:13:22.422Z,99891.50
2018-12-02T10:15:51.505Z,99881.64
2018-12-02T10:18:20.699Z,99883.31
2018-12-02T10:20:49.841Z,99876.88
2018-12-02T10:23:18.898Z,99867.84
2018-12-02T10:25:48.176Z,99870.84
2018-12-02T10:28:17.307Z,99863.11
2018-12-02T10:30:46.632Z,99862.31
2018-12-02T10:33:15.722Z,99857.50
2018-12-02T10:35:45.211Z,99852.83
2018-12-02T10:38:14.357Z,99848.48
2018-12-02T10:40:43.687Z,99844.19
2018-12-02T10:43:12.780Z,99841.20
2018-12-02T10:45:41.803Z,99839.02
2018-12-02T10:48:12.310Z,99834.26
2018-12-02T10:50:41.432Z,99827.54
2018-12-02T10:53:15.862Z,99826.98
2018-12-02T10:55:48.912Z,99826.95
2018-12-02T10:58:21.607Z,99815.84
2018-12-02T11:00:57.728Z,99806.38
2018-12-02T11:03:26.745Z,99805.52
2018-12-02T11:05:55.750Z,99801.67
2018-12-02T11:08:24.740Z,99803.81
2018-12-02T11:10:53.715Z,99792.17
2018-12-02T11:13:22.740Z,99796.05
2018-12-02T11:15:51.737Z,99791.28
2018-12-02T11:18:20.780Z,99783.93
2018-12-02T11:20:49.783Z,99786.13
2018-12-02T11:23:18.966Z,99785.59
2018-12-02T11:25:47.958Z,99778.70
2018-12-02T11:28:17.083Z,99765.36
2018-12-02T11:30:46.197Z,99768.47
2018-12-02T11:33:15.229Z,99773.33
2018-12-02T11:35:44.230Z,99757.67
2018-12-02T11:38:13.267Z,99759.38
2018-12-02T11:40:43.267Z,99753.45
2018-12-02T11:43:12.272Z,99764.09
2018-12-02T11:45:41.872Z,99761.98
2018-12-02T11:48:10.977Z,99754.32
2018-12-02T11:50:40.309Z,99758.55
2018-12-02T11:53:09.348Z,99752.58
2018-12-02T11:55:38.332Z,99747.73
2018-12-02T11:58:07.587Z,99747.91
2018-12-02T12:00:38.979Z,99739.66
2018-12-02T12:03:07.926Z,99738.33
2018-12-02T12:05:37.847Z,99729.66
2018-12-02T12:08:09.826Z,99722.38
2018-12-02T12:10:38.959Z,99722.39
2018-12-02T12:13:08.167Z,99722.39
2018-12-02T12:15:37.715Z,99720.67
2018-12-02T12:18:09.468Z,99723.74
2018-12-02T12:20:43.914Z,99719.48
2018-12-02T12:23:16.422Z,99718.20
2018-12-02T12:25:45.732Z,99711.23
2018-12-02T12:28:14.782Z,99716.39
2018-12-02T12:30:43.948Z,99714.12
2018-12-02T12:33:13.419Z,99708.69
2018-12-02T12:35:46.437Z,99708.25
2018-12-02T12:38:15.445Z,99701.72
2018-12-02T12:40:45.444Z,99706.27
2018-12-02T12:43:29.710Z,99704.52
2018-12-02T12:45:59.744Z,99702.27
2018-12-02T12:48:28.696Z,99701.45
2018-12-02T12:50:57.701Z,99699.02
2018-12-02T12:53:26.854Z,99697.17
2018-12-02T12:55:55.831Z,99692.98
2018-12-02T12:58:24.852Z,99690.34
2018-12-02T13:00:53.864Z,99681.87
2018-12-02T13:03:22.950Z,99680.15
2018-12-02T13:05:52.223Z,99676.69
2018-12-02T13:08:21.272Z,99676.23
2018-12-02T13:10:50.286Z,99670.17
2018-12-02T13:13:19.327Z,99663.79
2018-12-02T13:15:48.340Z,99666.31
2018-12-02T13:18:17.458Z,99663.34
2018-12-02T13:20:56.079Z,99666.44
2018-12-02T13:23:26.234Z,99665.08
2018-12-02T13:25:55.300Z,99662.14
2018-12-02T13:28:24.364Z,99655.63
2018-12-02T13:30:53.483Z,99656.53
2018-12-02T13:33:22.484Z,99654.88
2018-12-02T13:35:51.765Z,99648.85
2018-12-02T13:38:20.850Z,99652.30
2018-12-02T13:40:50.099Z,99650.91
2018-12-02T13:43:22.491Z,99644.74
2018-12-02T13:45:51.943Z,99645.84
2018-12-02T13:48:21.334Z,99641.51
2018-12-02T13:50:50.334Z,99640.25
2018-12-02T13:53:20.287Z,99640.19
2018-12-02T13:55:49.625Z,99638.91
2018-12-02T13:58:21.551Z,99639.78
2018-12-02T14:00:50.632Z,99642.36
2018-12-02T14:03:19.624Z,99648.77
2018-12-02T14:05:49.522Z,99645.38
2018-12-02T14:08:19.072Z,99643.23
2018-12-02T14:10:48.184Z,99639.38
2018-12-02T14:13:27.844Z,99644.00
2018-12-02T14:16:28.939Z,99642.36
2018-12-02T14:19:00.441Z,99633.67
2018-12-02T14:21:29.465Z,99634.14
2018-12-02T14:24:00.976Z,99631.56
2018-12-02T14:26:29.955Z,99628.11
2018-12-02T14:29:11.894Z,99633.70
2018-12-02T14:31:44.687Z,99630.73
2018-12-02T14:34:13.680Z,99631.15
2018-12-02T14:36:52.270Z,99634.60
2018-12-02T14:39:21.278Z,99629.89
2018-12-02T14:41:50.353Z,99628.60
2018-12-02T14:44:22.231Z,99627.28
2018-12-02T14:46:51.328Z,99623.02
2018-12-02T14:49:20.369Z,99628.30
2018-12-02T14:51:49.399Z,99622.33
2018-12-02T14:54:18.462Z,99623.58
2018-12-02T14:56:47.538Z,99623.12
2018-12-02T14:59:16.650Z,99624.00
2018-12-02T15:01:45.809Z,99620.13
2018-12-02T15:04:14.949Z,99618.84
2018-12-02T15:06:43.927Z,99610.30
2018-12-02T15:09:12.905Z,99614.02
2018-12-02T15:11:41.954Z,99612.91
2018-12-02T15:14:12.165Z,99607.61
2018-12-02T15:16:41.682Z,99606.77
2018-12-02T15:19:13.061Z,99608.93
2018-12-02T15:21:42.747Z,99602.57
2018-12-02T15:24:12.512Z,99600.88
2018-12-02T15:26:42.011Z,99599.62
2018-12-02T15:29:11.070Z,99589.78
2018-12-02T15:31:40.230Z,99593.09
2018-12-02T15:34:09.300Z,99592.27
2018-12-02T15:36:38.302Z,99587.92
2018-12-02T15:39:10.471Z,99592.25
2018-12-02T15:41:39.626Z,99587.15
2018-12-02T15:44:08.736Z,99575.91
2018-12-02T15:46:37.889Z,99581.92
2018-12-02T15:49:06.913Z,99574.63
2018-12-02T15:51:36.316Z,99575.86
2018-12-02T15:54:05.708Z,99572.40
2018-12-02T15:56:34.828Z,99568.19
2018-12-02T15:59:08.230Z,99562.59
2018-12-02T16:01:38.542Z,99563.42
2018-12-02T16:04:07.801Z,99564.85
2018-12-02T16:06:37.837Z,99560.93
2018-12-02T16:09:10.197Z,99557.45
2018-12-02T16:11:40.836Z,99557.73
2018-12-02T16:14:09.941Z,99554.44
2018-12-02T16:16:40.841Z,99559.52
2018-12-02T16:19:09.903Z,99555.22
2018-12-02T16:21:39.226Z,99560.34
2018-12-02T16:24:08.479Z,99555.25
2018-12-02T16:26:37.590Z,99552.67
2018-12-02T16:29:06.706Z,99556.51
2018-12-02T16:31:35.880Z,99556.10
2018-12-02T16:34:05.072Z,99555.56
2018-12-02T16:36:34.062Z,99542.27
2018-12-02T16:39:03.222Z,99544.88
2018-12-02T16:41:32.203Z,99549.22
2018-12-02T16:44:01.196Z,99544.92
2018-12-02T16:46:30.184Z,99547.83
2018-12-02T16:48:59.590Z,99541.94
2018-12-02T16:51:28.575Z,99547.05
2018-12-02T16:53:57.760Z,99544.95
2018-12-02T16:56:26.975Z,99541.39
2018-12-02T16:59:13.209Z,99547.09
2018-12-02T17:01:46.684Z,99552.58
2018-12-02T17:04:16.380Z,99534.48
2018-12-02T17:06:45.536Z,99537.87
2018-12-02T17:09:14.652Z,99550.10
2018-12-02T17:11:44.388Z,99544.37
2018-12-02T17:14:13.635Z,99535.77
2018-12-02T17:16:42.715Z,99537.83
2018-12-02T17:19:12.570Z,99536.50
2018-12-02T17:21:42.721Z,99532.23
2018-12-02T17:24:12.637Z,99540.48
2018-12-02T17:26:41.612Z,99539.08
2018-12-02T17:29:13.569Z,99539.41
2018-12-02T17:31:46.510Z,99540.52
2018-12-02T17:34:15.587Z,99537.79
2018-12-02T17:36:45.047Z,99541.62
2018-12-02T17:39:19.197Z,99538.59
2018-12-02T17:41:52.581Z,99548.91
2018-12-02T17:44:21.693Z,99541.58
2018-12-02T17:46:50.659Z,99540.33
2018-12-02T17:49:19.789Z,99536.02
2018-12-02T17:51:48.820Z,99539.41
2018-12-02T17:54:17.905Z,99547.77
2018-12-02T17:56:46.912Z,99540.33
2018-12-02T17:59:15.984Z,99531.60
2018-12-02T18:01:45.257Z,99529.10
2018-12-02T18:04:14.305Z,99539.84
2018-12-02T18:06:43.425Z,99543.20
2018-12-02T18:09:14.338Z,99533.20
2018-12-02T18:11:43.403Z,99526.72
2018-12-02T18:14:12.593Z,99532.77
2018-12-02T18:16:41.887Z,99538.89
2018-12-02T18:19:10.902Z,99550.52
2018-12-02T18:21:40.154Z,99539.30
2018-12-02T18:24:09.226Z,99539.61
2018-12-02T18:26:44.995Z,99537.92
2018-12-02T18:29:14.114Z,99537.48
2018-12-02T18:31:43.144Z,99541.30
2018-12-02T18:34:13.232Z,99541.95
2018-12-02T18:36:42.607Z,99541.70
2018-12-02T18:39:15.104Z,99539.57
2018-12-02T18:41:49.332Z,99546.78
2018-12-02T18:44:18.589Z,99551.09
2018-12-02T18:46:48.051Z,99548.59
2018-12-02T18:49:17.102Z,99551.00
2018-12-02T18:51:46.185Z,99555.40
2018-12-02T18:54:15.282Z,99556.29
2018-12-02T18:56:44.401Z,99551.08
2018-12-02T18:59:13.379Z,99553.08
2018-12-02T19:01:42.417Z,99554.94
2018-12-02T19:04:11.453Z,99553.03
2018-12-02T19:06:40.558Z,99553.88
2018-12-02T19:09:12.324Z,99557.04
2018-12-02T19:11:42.406Z,99556.55
2018-12-02T19:14:11.590Z,99554.33
2018-12-02T19:16:40.808Z,99543.92
2018-12-02T19:19:10.182Z,99549.57
2018-12-02T19:21:39.391Z,99557.94
2018-12-02T19:24:09.357Z,99556.23
2018-12-02T19:26:38.697Z,99558.86
2018-12-02T19:29:08.429Z,99557.03
2018-12-02T19:31:37.637Z,99557.08
2018-12-02T19:34:07.991Z,99560.10
2018-12-02T19:36:50.316Z,99566.34
2018-12-02T19:39:19.657Z,99565.36
2018-12-02T19:41:48.684Z,99565.44
2018-12-02T19:44:17.783Z,99577.70
2018-12-02T19:46:46.937Z,99573.72
2018-12-02T19:49:16.073Z,99564.81
2018-12-02T19:51:45.096Z,99580.81
2018-12-02T19:54:14.123Z,99561.92
2018-12-02T19:56:43.215Z,99576.23
2018-12-02T19:59:12.268Z,99587.50
2018-12-02T20:01:41.317Z,99588.20
2018-12-02T20:04:10.582Z,99575.58
2018-12-02T20:06:39.630Z,99581.74
2018-12-02T20:09:10.693Z,99585.12
2018-12-02T20:11:39.761Z,99583.45
2018-12-02T20:14:09.103Z,99593.77
2018-12-02T20:16:38.298Z,99587.48
2018-12-02T20:19:13.049Z,99594.82
2018-12-02T20:21:42.135Z,99598.17
2018-12-02T20:26:46.710Z,99596.94
2018-12-02T20:29:15.847Z,99595.64
2018-12-02T20:31:45.215Z,99609.00
2018-12-02T20:34:14.360Z,99595.00
2018-12-02T20:36:43.713Z,99595.78
2018-12-02T20:39:12.831Z,99589.69
2018-12-02T20:41:41.905Z,99586.17
2018-12-02T20:44:11.200Z,99594.71
2018-12-02T20:46:40.249Z,99594.50
2018-12-02T20:49:09.304Z,99594.16
2018-12-02T20:51:38.396Z,99600.55
2018-12-02T20:54:07.783Z,99594.95
2018-12-02T20:56:36.849Z,99597.33
2018-12-02T20:59:07.347Z,99599.77
2018-12-02T21:01:36.577Z,99602.30
2018-12-02T21:04:09.667Z,99596.34
2018-12-02T21:06:39.005Z,99600.66
2018-12-02T21:09:08.541Z,99599.24
2018-12-02T21:11:40.528Z,99603.38
2018-12-02T21:14:07.037Z,99600.55
2018-12-02T21:16:36.133Z,99596.30
2018-12-02T21:19:05.567Z,99598.22
2018-12-02T21:21:37.076Z,99591.89
2018-12-02T21:24:03.802Z,99596.28
2018-12-02T21:26:32.826Z,99606.66
2018-12-02T21:29:01.839Z,99609.41
2018-12-02T21:31:31.019Z,99605.77
2018-12-02T21:34:00.041Z,99601.04
2018-12-02T21:36:29.122Z,99599.70
2018-12-02T21:38:58.348Z,99600.70
2018-12-02T21:41:27.359Z,99602.28
2018-12-02T21:43:56.650Z,99600.86
2018-12-02T21:46:25.855Z,99603.57
2018-12-02T21:48:54.864Z,99608.35
2018-12-02T21:51:23.882Z,99610.94
2018-12-02T21:53:53.002Z,99607.44
2018-12-02T21:56:22.088Z,99604.02
2018-12-02T21:58:51.096Z,99610.58
2018-12-02T22:01:20.088Z,99601.25
2018-12-02T22:03:49.184Z,99605.06
2018-12-02T22:06:18.203Z,99610.48
2018-12-02T22:08:47.464Z,99614.41
2018-12-02T22:11:16.564Z,99606.61
2018-12-02T22:13:45.562Z,99613.97
2018-12-02T22:16:14.798Z,99609.05
2018-12-02T22:18:43.823Z,99614.14
2018-12-02T22:21:13.050Z,99614.81
2018-12-02T22:23:42.087Z,99607.50
2018-12-02T22:26:12.021Z,99619.57
2018-12-02T22:28:41.180Z,99616.98
2018-12-02T22:31:10.562Z,99621.72
2018-12-02T22:33:39.579Z,99623.39
2018-12-02T22:36:13.984Z,99623.49
2018-12-02T22:38:38.072Z,99617.12
2018-12-02T22:41:07.785Z,99613.34
2018-12-02T22:43:36.839Z,99617.09
2018-12-02T22:46:06.757Z,99619.36
2018-12-02T22:48:36.047Z,99624.48
2018-12-02T22:51:05.283Z,99611.47
2018-12-02T22:53:34.637Z,99624.14
2018-12-02T22:56:03.649Z,99625.27
2018-12-02T22:58:32.904Z,99621.56
2018-12-02T23:01:07.555Z,99617.48
2018-12-02T23:03:36.822Z,99613.72
2018-12-02T23:06:06.425Z,99616.36
2018-12-02T23:08:35.961Z,99613.42
2018-12-02T23:11:04.933Z,99607.05
2018-12-02T23:13:34.485Z,99613.12
2018-12-02T23:16:03.516Z,99605.38
2018-12-02T23:18:32.580Z,99605.52
2018-12-02T23:21:01.590Z,99601.64
2018-12-02T23:23:30.708Z,99606.41
2018-12-02T23:25:59.710Z,99605.03
2018-12-02T23:28:28.683Z,99606.81
2018-12-02T23:30:58.301Z,99605.61
2018-12-02T23:33:28.112Z,99615.70
2018-12-02T23:35:57.811Z,99613.57
2018-12-02T23:38:27.516Z,99612.09
2018-12-02T23:40:56.543Z,99610.27
2018-12-02T23:43:25.553Z,99619.09
2018-12-02T23:45:54.564Z,99617.20
2018-12-02T23:48:23.824Z,99605.91
2018-12-02T23:50:53.071Z,99606.64
2018-12-02T23:53:22.085Z,99601.10
2018-12-02T23:55:51.082Z,99601.84
2018-12-02T23:58:20.328Z,99599.27
